sensor_id;sensor_type;location;lat;lon;timestamp;P1;durP1;ratioP1;P2;durP2;ratioP2
26014;SDS011;13793;55.388;37.844;2023-10-13T00:01:50;8.23;;;2.10;;
26014;SDS011;13793;55.388;37.844;2023-10-13T00:04:49;7.30;;;2.17;;
26014;SDS011;13793;55.388;37.844;2023-10-13T00:07:48;8.40;;;2.33;;
26014;SDS011;13793;55.388;37.844;2023-10-13T00:10:47;8.57;;;2.70;;
26014;SDS011;13793;55.388;37.844;2023-10-13T00:13:46;7.27;;;2.67;;
26014;SDS011;13793;55.388;37.844;2023-10-13T00:16:48;7.17;;;2.50;;
26014;SDS011;13793;55.388;37.844;2023-10-13T00:20:03;15.07;;;2.97;;
26014;SDS011;13793;55.388;37.844;2023-10-13T00:23:09;7.13;;;2.33;;
26014;SDS011;13793;55.388;37.844;2023-10-13T00:26:09;7.90;;;2.60;;
26014;SDS011;13793;55.388;37.844;2023-10-13T00:29:09;7.63;;;2.00;;
26014;SDS011;13793;55.388;37.844;2023-10-13T00:32:12;5.33;;;2.00;;
26014;SDS011;13793;55.388;37.844;2023-10-13T00:35:13;6.40;;;1.70;;
26014;SDS011;13793;55.388;37.844;2023-10-13T00:38:13;5.57;;;1.47;;
26014;SDS011;13793;55.388;37.844;2023-10-13T00:41:13;2.50;;;1.47;;
26014;SDS011;13793;55.388;37.844;2023-10-13T00:44:03;5.67;;;2.03;;
26014;SDS011;13793;55.388;37.844;2023-10-13T00:46:47;5.03;;;1.63;;
26014;SDS011;13793;55.388;37.844;2023-10-13T00:49:53;3.47;;;1.60;;
26014;SDS011;13793;55.388;37.844;2023-10-13T00:52:52;6.00;;;1.50;;
26014;SDS011;13793;55.388;37.844;2023-10-13T00:55:53;4.93;;;1.70;;
26014;SDS011;13793;55.388;37.844;2023-10-13T00:58:59;5.37;;;1.43;;
26014;SDS011;13793;55.388;37.844;2023-10-13T01:01:59;4.83;;;1.70;;
26014;SDS011;13793;55.388;37.844;2023-10-13T01:04:59;5.73;;;1.63;;
26014;SDS011;13793;55.388;37.844;2023-10-13T01:08:02;3.47;;;1.47;;
26014;SDS011;13793;55.388;37.844;2023-10-13T01:11:01;6.93;;;1.90;;
26014;SDS011;13793;55.388;37.844;2023-10-13T01:14:02;5.07;;;1.97;;
26014;SDS011;13793;55.388;37.844;2023-10-13T01:17:08;4.93;;;1.80;;
26014;SDS011;13793;55.388;37.844;2023-10-13T01:20:07;5.83;;;1.70;;
26014;SDS011;13793;55.388;37.844;2023-10-13T01:22:57;5.83;;;1.87;;
26014;SDS011;13793;55.388;37.844;2023-10-13T01:25:40;7.90;;;2.10;;
26014;SDS011;13793;55.388;37.844;2023-10-13T01:28:38;5.47;;;1.80;;
26014;SDS011;13793;55.388;37.844;2023-10-13T01:31:43;8.80;;;2.23;;
26014;SDS011;13793;55.388;37.844;2023-10-13T01:34:44;7.87;;;2.30;;
26014;SDS011;13793;55.388;37.844;2023-10-13T01:37:46;7.93;;;1.97;;
26014;SDS011;13793;55.388;37.844;2023-10-13T01:40:46;8.57;;;2.20;;
26014;SDS011;13793;55.388;37.844;2023-10-13T01:43:47;8.10;;;2.37;;
26014;SDS011;13793;55.388;37.844;2023-10-13T01:46:46;7.67;;;2.53;;
26014;SDS011;13793;55.388;37.844;2023-10-13T01:49:44;6.90;;;2.17;;
26014;SDS011;13793;55.388;37.844;2023-10-13T01:52:47;9.73;;;1.87;;
26014;SDS011;13793;55.388;37.844;2023-10-13T01:55:45;10.57;;;2.37;;
26014;SDS011;13793;55.388;37.844;2023-10-13T01:58:44;8.77;;;2.30;;
26014;SDS011;13793;55.388;37.844;2023-10-13T02:01:50;9.83;;;2.50;;
26014;SDS011;13793;55.388;37.844;2023-10-13T02:04:50;10.27;;;2.60;;
26014;SDS011;13793;55.388;37.844;2023-10-13T02:07:56;9.97;;;2.57;;
26014;SDS011;13793;55.388;37.844;2023-10-13T02:10:57;6.00;;;2.27;;
26014;SDS011;13793;55.388;37.844;2023-10-13T02:14:03;9.50;;;2.13;;
26014;SDS011;13793;55.388;37.844;2023-10-13T02:17:02;10.97;;;1.90;;
26014;SDS011;13793;55.388;37.844;2023-10-13T02:20:12;9.37;;;2.20;;
26014;SDS011;13793;55.388;37.844;2023-10-13T02:23:13;7.60;;;1.83;;
26014;SDS011;13793;55.388;37.844;2023-10-13T02:26:12;9.00;;;2.17;;
26014;SDS011;13793;55.388;37.844;2023-10-13T02:29:18;6.57;;;2.00;;
26014;SDS011;13793;55.388;37.844;2023-10-13T02:32:07;9.43;;;2.20;;
26014;SDS011;13793;55.388;37.844;2023-10-13T02:34:55;6.10;;;1.73;;
26014;SDS011;13793;55.388;37.844;2023-10-13T02:37:55;11.40;;;1.93;;
26014;SDS011;13793;55.388;37.844;2023-10-13T02:40:56;5.00;;;1.60;;
26014;SDS011;13793;55.388;37.844;2023-10-13T02:43:56;7.20;;;2.27;;
26014;SDS011;13793;55.388;37.844;2023-10-13T02:47:00;8.30;;;1.80;;
26014;SDS011;13793;55.388;37.844;2023-10-13T02:50:01;7.80;;;1.60;;
26014;SDS011;13793;55.388;37.844;2023-10-13T02:53:00;8.00;;;1.80;;
26014;SDS011;13793;55.388;37.844;2023-10-13T02:56:01;8.53;;;1.90;;
26014;SDS011;13793;55.388;37.844;2023-10-13T02:59:03;6.57;;;1.70;;
26014;SDS011;13793;55.388;37.844;2023-10-13T03:02:08;10.53;;;1.90;;
26014;SDS011;13793;55.388;37.844;2023-10-13T03:05:14;10.17;;;1.70;;
26014;SDS011;13793;55.388;37.844;2023-10-13T03:08:14;7.43;;;1.73;;
26014;SDS011;13793;55.388;37.844;2023-10-13T03:11:14;8.20;;;1.63;;
26014;SDS011;13793;55.388;37.844;2023-10-13T03:14:15;7.07;;;1.83;;
26014;SDS011;13793;55.388;37.844;2023-10-13T03:17:24;7.67;;;2.00;;
26014;SDS011;13793;55.388;37.844;2023-10-13T03:20:32;9.83;;;2.30;;
26014;SDS011;13793;55.388;37.844;2023-10-13T03:23:32;8.53;;;2.00;;
26014;SDS011;13793;55.388;37.844;2023-10-13T03:26:22;7.10;;;1.67;;
26014;SDS011;13793;55.388;37.844;2023-10-13T03:29:03;7.30;;;1.70;;
26014;SDS011;13793;55.388;37.844;2023-10-13T03:32:03;4.53;;;1.70;;
26014;SDS011;13793;55.388;37.844;2023-10-13T03:35:07;7.90;;;2.07;;
26014;SDS011;13793;55.388;37.844;2023-10-13T03:38:10;7.57;;;1.93;;
26014;SDS011;13793;55.388;37.844;2023-10-13T03:41:13;9.30;;;2.00;;
26014;SDS011;13793;55.388;37.844;2023-10-13T03:44:19;7.40;;;2.07;;
26014;SDS011;13793;55.388;37.844;2023-10-13T03:47:19;8.20;;;2.03;;
26014;SDS011;13793;55.388;37.844;2023-10-13T03:50:20;6.63;;;1.70;;
26014;SDS011;13793;55.388;37.844;2023-10-13T03:53:19;8.30;;;1.80;;
26014;SDS011;13793;55.388;37.844;2023-10-13T03:56:01;6.93;;;2.27;;
26014;SDS011;13793;55.388;37.844;2023-10-13T03:59:08;9.63;;;1.93;;
26014;SDS011;13793;55.388;37.844;2023-10-13T04:02:09;9.93;;;1.90;;
26014;SDS011;13793;55.388;37.844;2023-10-13T04:05:12;6.33;;;1.90;;
26014;SDS011;13793;55.388;37.844;2023-10-13T04:08:12;6.73;;;1.70;;
26014;SDS011;13793;55.388;37.844;2023-10-13T04:11:34;9.27;;;1.77;;
26014;SDS011;13793;55.388;37.844;2023-10-13T04:14:40;7.57;;;2.20;;
26014;SDS011;13793;55.388;37.844;2023-10-13T04:17:58;7.60;;;2.27;;
26014;SDS011;13793;55.388;37.844;2023-10-13T04:21:15;7.23;;;2.10;;
26014;SDS011;13793;55.388;37.844;2023-10-13T04:24:32;7.97;;;1.83;;
26014;SDS011;13793;55.388;37.844;2023-10-13T04:27:49;10.00;;;2.00;;
26014;SDS011;13793;55.388;37.844;2023-10-13T04:31:06;7.17;;;1.97;;
26014;SDS011;13793;55.388;37.844;2023-10-13T04:34:22;6.53;;;1.80;;
26014;SDS011;13793;55.388;37.844;2023-10-13T04:37:40;9.87;;;1.97;;
26014;SDS011;13793;55.388;37.844;2023-10-13T04:40:56;7.30;;;1.93;;
26014;SDS011;13793;55.388;37.844;2023-10-13T04:44:13;9.87;;;1.90;;
26014;SDS011;13793;55.388;37.844;2023-10-13T04:47:31;9.07;;;2.23;;
26014;SDS011;13793;55.388;37.844;2023-10-13T04:50:48;10.47;;;2.00;;
26014;SDS011;13793;55.388;37.844;2023-10-13T04:54:05;8.70;;;2.23;;
26014;SDS011;13793;55.388;37.844;2023-10-13T04:57:22;7.77;;;2.17;;
26014;SDS011;13793;55.388;37.844;2023-10-13T05:00:46;8.33;;;1.70;;
26014;SDS011;13793;55.388;37.844;2023-10-13T05:04:03;15.90;;;2.00;;
26014;SDS011;13793;55.388;37.844;2023-10-13T05:07:19;8.63;;;1.93;;
26014;SDS011;13793;55.388;37.844;2023-10-13T05:10:41;5.90;;;1.83;;
26014;SDS011;13793;55.388;37.844;2023-10-13T05:13:58;8.07;;;1.60;;
26014;SDS011;13793;55.388;37.844;2023-10-13T05:17:15;8.13;;;1.83;;
26014;SDS011;13793;55.388;37.844;2023-10-13T05:20:32;12.87;;;2.10;;
26014;SDS011;13793;55.388;37.844;2023-10-13T05:23:49;7.73;;;2.10;;
26014;SDS011;13793;55.388;37.844;2023-10-13T05:27:06;8.67;;;1.73;;
26014;SDS011;13793;55.388;37.844;2023-10-13T05:30:23;9.63;;;1.83;;
26014;SDS011;13793;55.388;37.844;2023-10-13T05:33:40;9.30;;;2.60;;
26014;SDS011;13793;55.388;37.844;2023-10-13T05:36:57;7.00;;;1.80;;
26014;SDS011;13793;55.388;37.844;2023-10-13T05:40:14;9.73;;;2.43;;
26014;SDS011;13793;55.388;37.844;2023-10-13T05:43:30;5.80;;;1.60;;
26014;SDS011;13793;55.388;37.844;2023-10-13T05:46:46;6.33;;;2.27;;
26014;SDS011;13793;55.388;37.844;2023-10-13T05:50:03;5.63;;;1.93;;
26014;SDS011;13793;55.388;37.844;2023-10-13T05:53:26;7.05;;;2.12;;
26014;SDS011;13793;55.388;37.844;2023-10-13T05:56:43;6.75;;;1.90;;
26014;SDS011;13793;55.388;37.844;2023-10-13T06:00:01;6.85;;;1.75;;
26014;SDS011;13793;55.388;37.844;2023-10-13T06:03:24;8.55;;;2.20;;
26014;SDS011;13793;55.388;37.844;2023-10-13T06:06:41;9.68;;;1.60;;
26014;SDS011;13793;55.388;37.844;2023-10-13T06:09:57;5.95;;;1.70;;
26014;SDS011;13793;55.388;37.844;2023-10-13T06:13:13;7.15;;;1.75;;
26014;SDS011;13793;55.388;37.844;2023-10-13T06:16:30;10.70;;;2.00;;
26014;SDS011;13793;55.388;37.844;2023-10-13T06:19:46;8.28;;;1.80;;
26014;SDS011;13793;55.388;37.844;2023-10-13T06:23:03;7.30;;;1.65;;
26014;SDS011;13793;55.388;37.844;2023-10-13T06:26:20;9.28;;;1.60;;
26014;SDS011;13793;55.388;37.844;2023-10-13T06:29:36;7.28;;;1.90;;
26014;SDS011;13793;55.388;37.844;2023-10-13T06:32:54;6.72;;;1.50;;
26014;SDS011;13793;55.388;37.844;2023-10-13T06:36:10;4.92;;;1.60;;
26014;SDS011;13793;55.388;37.844;2023-10-13T06:39:27;8.15;;;1.60;;
26014;SDS011;13793;55.388;37.844;2023-10-13T06:42:44;6.55;;;1.55;;
26014;SDS011;13793;55.388;37.844;2023-10-13T06:46:01;3.80;;;1.70;;
26014;SDS011;13793;55.388;37.844;2023-10-13T06:49:18;4.40;;;1.35;;
26014;SDS011;13793;55.388;37.844;2023-10-13T06:52:35;5.75;;;1.62;;
26014;SDS011;13793;55.388;37.844;2023-10-13T06:55:52;7.58;;;1.72;;
26014;SDS011;13793;55.388;37.844;2023-10-13T06:59:09;7.33;;;1.77;;
26014;SDS011;13793;55.388;37.844;2023-10-13T07:02:26;4.75;;;1.57;;
26014;SDS011;13793;55.388;37.844;2023-10-13T07:05:44;6.17;;;1.55;;
26014;SDS011;13793;55.388;37.844;2023-10-13T07:09:01;4.47;;;1.20;;
26014;SDS011;13793;55.388;37.844;2023-10-13T07:12:18;8.10;;;1.80;;
26014;SDS011;13793;55.388;37.844;2023-10-13T07:15:35;4.62;;;1.30;;
26014;SDS011;13793;55.388;37.844;2023-10-13T07:18:51;4.95;;;1.80;;
26014;SDS011;13793;55.388;37.844;2023-10-13T07:22:08;7.47;;;1.52;;
26014;SDS011;13793;55.388;37.844;2023-10-13T07:25:25;4.42;;;1.52;;
26014;SDS011;13793;55.388;37.844;2023-10-13T07:28:42;7.30;;;1.98;;
26014;SDS011;13793;55.388;37.844;2023-10-13T07:32:04;3.60;;;1.37;;
26014;SDS011;13793;55.388;37.844;2023-10-13T07:35:21;7.80;;;1.70;;
26014;SDS011;13793;55.388;37.844;2023-10-13T07:38:39;4.22;;;1.32;;
26014;SDS011;13793;55.388;37.844;2023-10-13T07:41:56;7.12;;;1.35;;
26014;SDS011;13793;55.388;37.844;2023-10-13T07:45:12;4.80;;;1.37;;
26014;SDS011;13793;55.388;37.844;2023-10-13T07:48:29;3.83;;;1.30;;
26014;SDS011;13793;55.388;37.844;2023-10-13T07:51:46;5.65;;;1.32;;
26014;SDS011;13793;55.388;37.844;2023-10-13T07:55:08;5.45;;;1.47;;
26014;SDS011;13793;55.388;37.844;2023-10-13T07:58:25;5.75;;;1.47;;
26014;SDS011;13793;55.388;37.844;2023-10-13T08:01:41;6.50;;;2.17;;
26014;SDS011;13793;55.388;37.844;2023-10-13T08:04:58;3.65;;;1.90;;
26014;SDS011;13793;55.388;37.844;2023-10-13T08:08:15;6.15;;;1.67;;
26014;SDS011;13793;55.388;37.844;2023-10-13T08:11:32;3.55;;;1.50;;
26014;SDS011;13793;55.388;37.844;2023-10-13T08:14:48;3.80;;;1.27;;
26014;SDS011;13793;55.388;37.844;2023-10-13T08:18:05;5.25;;;1.20;;
26014;SDS011;13793;55.388;37.844;2023-10-13T08:21:22;6.05;;;1.37;;
26014;SDS011;13793;55.388;37.844;2023-10-13T08:24:39;4.22;;;1.35;;
26014;SDS011;13793;55.388;37.844;2023-10-13T08:27:56;2.65;;;1.27;;
26014;SDS011;13793;55.388;37.844;2023-10-13T08:31:16;4.22;;;1.35;;
26014;SDS011;13793;55.388;37.844;2023-10-13T08:34:30;4.45;;;1.32;;
26014;SDS011;13793;55.388;37.844;2023-10-13T08:37:47;3.55;;;1.12;;
26014;SDS011;13793;55.388;37.844;2023-10-13T08:41:04;4.17;;;1.17;;
26014;SDS011;13793;55.388;37.844;2023-10-13T08:44:21;6.72;;;2.67;;
26014;SDS011;13793;55.388;37.844;2023-10-13T08:47:39;6.42;;;2.08;;
26014;SDS011;13793;55.388;37.844;2023-10-13T08:50:56;5.33;;;1.32;;
26014;SDS011;13793;55.388;37.844;2023-10-13T08:54:14;4.20;;;1.35;;
26014;SDS011;13793;55.388;37.844;2023-10-13T08:57:30;2.77;;;1.00;;
26014;SDS011;13793;55.388;37.844;2023-10-13T09:00:47;7.33;;;1.27;;
26014;SDS011;13793;55.388;37.844;2023-10-13T09:04:05;4.35;;;0.75;;
26014;SDS011;13793;55.388;37.844;2023-10-13T09:07:22;3.43;;;1.00;;
26014;SDS011;13793;55.388;37.844;2023-10-13T09:10:39;2.67;;;0.80;;
26014;SDS011;13793;55.388;37.844;2023-10-13T09:13:56;2.42;;;0.95;;
26014;SDS011;13793;55.388;37.844;2023-10-13T09:17:13;2.20;;;0.72;;
26014;SDS011;13793;55.388;37.844;2023-10-13T09:20:30;2.85;;;0.88;;
26014;SDS011;13793;55.388;37.844;2023-10-13T09:23:53;1.95;;;0.90;;
26014;SDS011;13793;55.388;37.844;2023-10-13T09:27:10;3.52;;;1.10;;
26014;SDS011;13793;55.388;37.844;2023-10-13T09:30:26;4.95;;;1.00;;
26014;SDS011;13793;55.388;37.844;2023-10-13T09:33:44;2.67;;;0.80;;
26014;SDS011;13793;55.388;37.844;2023-10-13T09:37:02;3.30;;;1.00;;
26014;SDS011;13793;55.388;37.844;2023-10-13T09:40:19;4.30;;;2.12;;
26014;SDS011;13793;55.388;37.844;2023-10-13T09:43:36;3.37;;;0.85;;
26014;SDS011;13793;55.388;37.844;2023-10-13T09:47:00;4.12;;;0.98;;
26014;SDS011;13793;55.388;37.844;2023-10-13T09:50:17;4.03;;;1.40;;
26014;SDS011;13793;55.388;37.844;2023-10-13T09:53:35;5.30;;;1.40;;
26014;SDS011;13793;55.388;37.844;2023-10-13T09:57:02;2.47;;;0.90;;
26014;SDS011;13793;55.388;37.844;2023-10-13T10:00:25;4.50;;;1.05;;
26014;SDS011;13793;55.388;37.844;2023-10-13T10:03:47;4.85;;;1.50;;
26014;SDS011;13793;55.388;37.844;2023-10-13T10:07:04;3.98;;;1.47;;
26014;SDS011;13793;55.388;37.844;2023-10-13T10:10:22;4.87;;;1.60;;
26014;SDS011;13793;55.388;37.844;2023-10-13T10:17:10;3.10;;;1.20;;
26014;SDS011;13793;55.388;37.844;2023-10-13T10:20:32;3.85;;;1.07;;
26014;SDS011;13793;55.388;37.844;2023-10-13T10:23:52;1.52;;;0.70;;
26014;SDS011;13793;55.388;37.844;2023-10-13T10:27:11;3.90;;;1.20;;
26014;SDS011;13793;55.388;37.844;2023-10-13T10:30:29;5.47;;;1.10;;
26014;SDS011;13793;55.388;37.844;2023-10-13T10:33:50;2.25;;;1.00;;
26014;SDS011;13793;55.388;37.844;2023-10-13T10:37:10;2.77;;;1.52;;
26014;SDS011;13793;55.388;37.844;2023-10-13T10:40:29;3.98;;;1.20;;
26014;SDS011;13793;55.388;37.844;2023-10-13T10:43:49;3.72;;;1.10;;
26014;SDS011;13793;55.388;37.844;2023-10-13T10:47:10;4.60;;;1.32;;
26014;SDS011;13793;55.388;37.844;2023-10-13T10:50:31;3.60;;;1.00;;
26014;SDS011;13793;55.388;37.844;2023-10-13T10:53:52;3.40;;;1.20;;
26014;SDS011;13793;55.388;37.844;2023-10-13T10:57:14;2.47;;;1.05;;
26014;SDS011;13793;55.388;37.844;2023-10-13T11:00:32;6.80;;;1.20;;
26014;SDS011;13793;55.388;37.844;2023-10-13T11:04:06;2.92;;;1.05;;
26014;SDS011;13793;55.388;37.844;2023-10-13T11:07:22;2.87;;;1.20;;
26014;SDS011;13793;55.388;37.844;2023-10-13T11:10:46;4.42;;;1.37;;
26014;SDS011;13793;55.388;37.844;2023-10-13T11:14:04;3.30;;;0.90;;
26014;SDS011;13793;55.388;37.844;2023-10-13T11:17:28;3.47;;;1.10;;
26014;SDS011;13793;55.388;37.844;2023-10-13T11:20:47;3.15;;;1.05;;
26014;SDS011;13793;55.388;37.844;2023-10-13T11:24:08;3.45;;;1.00;;
26014;SDS011;13793;55.388;37.844;2023-10-13T11:27:19;4.92;;;1.07;;
26014;SDS011;13793;55.388;37.844;2023-10-13T11:30:04;3.73;;;1.10;;
26014;SDS011;13793;55.388;37.844;2023-10-13T11:33:08;2.83;;;1.20;;
26014;SDS011;13793;55.388;37.844;2023-10-13T11:36:09;5.95;;;2.33;;
26014;SDS011;13793;55.388;37.844;2023-10-13T11:39:14;4.45;;;1.52;;
26014;SDS011;13793;55.388;37.844;2023-10-13T11:42:26;2.77;;;1.00;;
26014;SDS011;13793;55.388;37.844;2023-10-13T11:45:28;3.95;;;1.35;;
26014;SDS011;13793;55.388;37.844;2023-10-13T11:48:31;3.33;;;1.67;;
26014;SDS011;13793;55.388;37.844;2023-10-13T11:51:43;3.70;;;1.52;;
26014;SDS011;13793;55.388;37.844;2023-10-13T11:54:46;2.95;;;1.75;;
26014;SDS011;13793;55.388;37.844;2023-10-13T11:57:48;4.80;;;2.20;;
26014;SDS011;13793;55.388;37.844;2023-10-13T12:00:49;4.25;;;1.50;;
26014;SDS011;13793;55.388;37.844;2023-10-13T12:03:57;3.92;;;1.22;;
26014;SDS011;13793;55.388;37.844;2023-10-13T12:07:21;2.12;;;1.10;;
26014;SDS011;13793;55.388;37.844;2023-10-13T12:10:39;5.80;;;2.60;;
26014;SDS011;13793;55.388;37.844;2023-10-13T12:13:58;4.60;;;1.57;;
26014;SDS011;13793;55.388;37.844;2023-10-13T12:17:16;4.08;;;1.00;;
26014;SDS011;13793;55.388;37.844;2023-10-13T12:20:35;4.95;;;1.37;;
26014;SDS011;13793;55.388;37.844;2023-10-13T12:23:53;3.55;;;1.50;;
26014;SDS011;13793;55.388;37.844;2023-10-13T12:27:15;3.35;;;1.00;;
26014;SDS011;13793;55.388;37.844;2023-10-13T12:30:32;3.42;;;1.20;;
26014;SDS011;13793;55.388;37.844;2023-10-13T12:33:50;4.65;;;1.20;;
26014;SDS011;13793;55.388;37.844;2023-10-13T12:37:09;4.80;;;1.30;;
26014;SDS011;13793;55.388;37.844;2023-10-13T12:40:27;5.58;;;1.15;;
26014;SDS011;13793;55.388;37.844;2023-10-13T12:43:47;5.22;;;1.65;;
26014;SDS011;13793;55.388;37.844;2023-10-13T12:47:08;4.40;;;1.07;;
26014;SDS011;13793;55.388;37.844;2023-10-13T12:50:24;3.85;;;1.70;;
26014;SDS011;13793;55.388;37.844;2023-10-13T12:53:44;3.08;;;1.30;;
26014;SDS011;13793;55.388;37.844;2023-10-13T12:57:03;2.92;;;1.10;;
26014;SDS011;13793;55.388;37.844;2023-10-13T13:00:24;4.28;;;1.00;;
26014;SDS011;13793;55.388;37.844;2023-10-13T13:03:42;5.10;;;1.50;;
26014;SDS011;13793;55.388;37.844;2023-10-13T13:07:01;4.47;;;1.77;;
26014;SDS011;13793;55.388;37.844;2023-10-13T13:10:19;3.72;;;1.70;;
26014;SDS011;13793;55.388;37.844;2023-10-13T13:13:42;5.80;;;2.17;;
26014;SDS011;13793;55.388;37.844;2023-10-13T13:17:04;24.12;;;13.13;;
26014;SDS011;13793;55.388;37.844;2023-10-13T13:20:21;3.95;;;1.95;;
26014;SDS011;13793;55.388;37.844;2023-10-13T13:23:41;3.42;;;1.70;;
26014;SDS011;13793;55.388;37.844;2023-10-13T13:26:59;40.12;;;21.30;;
26014;SDS011;13793;55.388;37.844;2023-10-13T13:30:18;8.43;;;4.10;;
26014;SDS011;13793;55.388;37.844;2023-10-13T13:33:39;5.20;;;1.98;;
26014;SDS011;13793;55.388;37.844;2023-10-13T13:36:57;5.08;;;1.77;;
26014;SDS011;13793;55.388;37.844;2023-10-13T13:40:15;5.75;;;2.35;;
26014;SDS011;13793;55.388;37.844;2023-10-13T13:43:38;5.03;;;2.02;;
26014;SDS011;13793;55.388;37.844;2023-10-13T13:46:57;5.03;;;2.47;;
26014;SDS011;13793;55.388;37.844;2023-10-13T13:50:16;3.87;;;1.87;;
26014;SDS011;13793;55.388;37.844;2023-10-13T13:53:38;5.97;;;1.72;;
26014;SDS011;13793;55.388;37.844;2023-10-13T13:56:58;4.83;;;1.77;;
26014;SDS011;13793;55.388;37.844;2023-10-13T14:00:18;7.53;;;1.75;;
26014;SDS011;13793;55.388;37.844;2023-10-13T14:03:40;10.90;;;2.52;;
26014;SDS011;13793;55.388;37.844;2023-10-13T14:07:02;9.23;;;3.60;;
26014;SDS011;13793;55.388;37.844;2023-10-13T14:10:21;11.05;;;4.90;;
26014;SDS011;13793;55.388;37.844;2023-10-13T14:13:40;8.35;;;3.15;;
26014;SDS011;13793;55.388;37.844;2023-10-13T14:16:57;6.50;;;2.50;;
26014;SDS011;13793;55.388;37.844;2023-10-13T14:20:17;8.60;;;2.90;;
26014;SDS011;13793;55.388;37.844;2023-10-13T14:23:36;11.10;;;4.50;;
26014;SDS011;13793;55.388;37.844;2023-10-13T14:26:54;10.38;;;4.62;;
26014;SDS011;13793;55.388;37.844;2023-10-13T14:30:15;12.95;;;5.47;;
26014;SDS011;13793;55.388;37.844;2023-10-13T14:33:37;12.68;;;5.45;;
26014;SDS011;13793;55.388;37.844;2023-10-13T14:36:55;18.05;;;5.80;;
26014;SDS011;13793;55.388;37.844;2023-10-13T14:40:19;11.22;;;5.05;;
26014;SDS011;13793;55.388;37.844;2023-10-13T14:43:44;11.95;;;5.17;;
26014;SDS011;13793;55.388;37.844;2023-10-13T14:47:04;16.37;;;6.03;;
26014;SDS011;13793;55.388;37.844;2023-10-13T14:50:27;16.05;;;5.72;;
26014;SDS011;13793;55.388;37.844;2023-10-13T14:53:55;13.15;;;4.62;;
26014;SDS011;13793;55.388;37.844;2023-10-13T14:57:14;12.40;;;3.80;;
26014;SDS011;13793;55.388;37.844;2023-10-13T15:00:39;10.70;;;4.37;;
26014;SDS011;13793;55.388;37.844;2023-10-13T15:03:59;7.95;;;3.05;;
26014;SDS011;13793;55.388;37.844;2023-10-13T15:07:18;8.00;;;3.15;;
26014;SDS011;13793;55.388;37.844;2023-10-13T15:10:41;6.30;;;2.75;;
26014;SDS011;13793;55.388;37.844;2023-10-13T15:13:51;8.10;;;3.25;;
26014;SDS011;13793;55.388;37.844;2023-10-13T15:16:37;11.73;;;5.70;;
26014;SDS011;13793;55.388;37.844;2023-10-13T15:19:42;18.05;;;9.03;;
26014;SDS011;13793;55.388;37.844;2023-10-13T15:22:43;22.50;;;10.98;;
26014;SDS011;13793;55.388;37.844;2023-10-13T15:25:47;28.10;;;13.05;;
26014;SDS011;13793;55.388;37.844;2023-10-13T15:28:49;27.07;;;14.10;;
26014;SDS011;13793;55.388;37.844;2023-10-13T15:31:52;27.65;;;12.40;;
26014;SDS011;13793;55.388;37.844;2023-10-13T15:34:58;20.32;;;9.63;;
26014;SDS011;13793;55.388;37.844;2023-10-13T15:37:51;18.50;;;9.10;;
26014;SDS011;13793;55.388;37.844;2023-10-13T15:40:41;20.43;;;10.23;;
26014;SDS011;13793;55.388;37.844;2023-10-13T15:44:01;17.63;;;9.43;;
26014;SDS011;13793;55.388;37.844;2023-10-13T15:47:05;21.27;;;11.07;;
26014;SDS011;13793;55.388;37.844;2023-10-13T15:50:10;22.23;;;11.00;;
26014;SDS011;13793;55.388;37.844;2023-10-13T15:53:14;21.20;;;10.63;;
26014;SDS011;13793;55.388;37.844;2023-10-13T15:56:18;18.73;;;10.73;;
26014;SDS011;13793;55.388;37.844;2023-10-13T15:59:25;20.73;;;10.90;;
26014;SDS011;13793;55.388;37.844;2023-10-13T16:02:29;24.00;;;11.30;;
26014;SDS011;13793;55.388;37.844;2023-10-13T16:05:33;24.20;;;11.40;;
26014;SDS011;13793;55.388;37.844;2023-10-13T16:08:39;21.10;;;10.80;;
26014;SDS011;13793;55.388;37.844;2023-10-13T16:11:42;22.47;;;10.00;;
26014;SDS011;13793;55.388;37.844;2023-10-13T16:14:48;18.23;;;8.93;;
26014;SDS011;13793;55.388;37.844;2023-10-13T16:17:54;19.43;;;9.43;;
26014;SDS011;13793;55.388;37.844;2023-10-13T16:20:56;19.13;;;9.60;;
26014;SDS011;13793;55.388;37.844;2023-10-13T16:23:58;20.87;;;9.97;;
26014;SDS011;13793;55.388;37.844;2023-10-13T16:27:04;23.77;;;10.93;;
26014;SDS011;13793;55.388;37.844;2023-10-13T16:30:12;21.33;;;10.77;;
26014;SDS011;13793;55.388;37.844;2023-10-13T16:33:17;20.73;;;11.13;;
26014;SDS011;13793;55.388;37.844;2023-10-13T16:36:20;28.37;;;13.63;;
26014;SDS011;13793;55.388;37.844;2023-10-13T16:39:25;29.93;;;14.50;;
26014;SDS011;13793;55.388;37.844;2023-10-13T16:42:29;31.37;;;14.27;;
26014;SDS011;13793;55.388;37.844;2023-10-13T16:45:39;30.83;;;16.20;;
26014;SDS011;13793;55.388;37.844;2023-10-13T16:48:42;29.07;;;14.27;;
26014;SDS011;13793;55.388;37.844;2023-10-13T16:51:42;29.47;;;13.53;;
26014;SDS011;13793;55.388;37.844;2023-10-13T16:54:44;23.47;;;13.00;;
26014;SDS011;13793;55.388;37.844;2023-10-13T16:57:53;31.00;;;13.93;;
26014;SDS011;13793;55.388;37.844;2023-10-13T17:00:56;20.67;;;10.30;;
26014;SDS011;13793;55.388;37.844;2023-10-13T17:04:02;19.10;;;9.23;;
26014;SDS011;13793;55.388;37.844;2023-10-13T17:07:05;21.20;;;10.20;;
26014;SDS011;13793;55.388;37.844;2023-10-13T17:10:11;23.03;;;10.30;;
26014;SDS011;13793;55.388;37.844;2023-10-13T17:13:14;22.87;;;10.10;;
26014;SDS011;13793;55.388;37.844;2023-10-13T17:16:18;25.33;;;10.37;;
26014;SDS011;13793;55.388;37.844;2023-10-13T17:19:20;29.43;;;14.83;;
26014;SDS011;13793;55.388;37.844;2023-10-13T17:22:23;29.37;;;14.40;;
26014;SDS011;13793;55.388;37.844;2023-10-13T17:25:24;24.60;;;11.00;;
26014;SDS011;13793;55.388;37.844;2023-10-13T17:28:28;23.83;;;10.27;;
26014;SDS011;13793;55.388;37.844;2023-10-13T17:31:35;20.63;;;10.17;;
26014;SDS011;13793;55.388;37.844;2023-10-13T17:34:46;22.70;;;11.63;;
26014;SDS011;13793;55.388;37.844;2023-10-13T17:37:48;19.50;;;8.83;;
26014;SDS011;13793;55.388;37.844;2023-10-13T17:40:51;18.20;;;8.80;;
26014;SDS011;13793;55.388;37.844;2023-10-13T17:43:59;19.87;;;9.83;;
26014;SDS011;13793;55.388;37.844;2023-10-13T17:47:03;22.30;;;11.37;;
26014;SDS011;13793;55.388;37.844;2023-10-13T17:50:05;20.70;;;9.00;;
26014;SDS011;13793;55.388;37.844;2023-10-13T17:53:10;15.00;;;7.87;;
26014;SDS011;13793;55.388;37.844;2023-10-13T17:56:10;14.37;;;7.47;;
26014;SDS011;13793;55.388;37.844;2023-10-13T17:59:12;18.30;;;9.07;;
26014;SDS011;13793;55.388;37.844;2023-10-13T18:02:18;18.47;;;8.80;;
26014;SDS011;13793;55.388;37.844;2023-10-13T18:05:03;23.10;;;9.40;;
26014;SDS011;13793;55.388;37.844;2023-10-13T18:07:48;18.98;;;10.98;;
26014;SDS011;13793;55.388;37.844;2023-10-13T18:10:32;17.17;;;9.63;;
26014;SDS011;13793;55.388;37.844;2023-10-13T18:13:15;18.37;;;8.23;;
26014;SDS011;13793;55.388;37.844;2023-10-13T18:16:10;18.73;;;8.00;;
26014;SDS011;13793;55.388;37.844;2023-10-13T18:19:01;15.30;;;6.80;;
26014;SDS011;13793;55.388;37.844;2023-10-13T18:21:46;16.27;;;6.70;;
26014;SDS011;13793;55.388;37.844;2023-10-13T18:24:28;13.87;;;6.47;;
26014;SDS011;13793;55.388;37.844;2023-10-13T18:27:11;16.60;;;7.37;;
26014;SDS011;13793;55.388;37.844;2023-10-13T18:29:56;17.33;;;7.73;;
26014;SDS011;13793;55.388;37.844;2023-10-13T18:32:41;18.73;;;7.47;;
26014;SDS011;13793;55.388;37.844;2023-10-13T18:35:33;15.47;;;6.50;;
26014;SDS011;13793;55.388;37.844;2023-10-13T18:38:16;13.70;;;7.27;;
26014;SDS011;13793;55.388;37.844;2023-10-13T18:41:02;12.20;;;6.67;;
26014;SDS011;13793;55.388;37.844;2023-10-13T18:43:45;17.60;;;8.97;;